Time,TemperatureF,DewpointF,PressureIn,WindDirection,WindDirectionDegrees,WindSpeedMPH,WindSpeedGustMPH,Humidity,HourlyPrecipIn,Conditions,Clouds,dailyrainin,SoftwareType,DateUTC
2013-03-12 00:02:00,46.8,41.9,29.90,ESE,112,0.0,-999.0,83,-99.99,,,0.00,Acu-Link.com,2013-03-12 05:02:00,
2013-03-12 00:17:00,46.9,41.7,29.94,NW,315,2.7,-999.0,82,-99.99,,,0.00,Acu-Link.com,2013-03-12 05:17:00,
2013-03-12 00:33:00,46.9,41.4,29.90,NW,315,3.2,-999.0,81,-99.99,,,0.00,Acu-Link.com,2013-03-12 05:33:00,
2013-03-12 00:48:00,46.6,41.1,29.94,NE,45,0.0,-999.0,81,-99.99,,,0.00,Acu-Link.com,2013-03-12 05:48:00,
2013-03-12 01:03:00,45.5,40.6,29.91,ESE,112,0.0,-999.0,83,-99.99,,,0.00,Acu-Link.com,2013-03-12 06:03:00,
2013-03-12 01:18:00,44.6,40.7,29.92,NNW,337,0.0,-999.0,86,-99.99,,,0.00,Acu-Link.com,2013-03-12 06:18:00,
2013-03-12 01:34:00,44.1,41.4,29.93,WNW,292,0.0,-999.0,90,-99.99,,,0.00,Acu-Link.com,2013-03-12 06:34:00,
2013-03-12 01:49:00,43.2,40.8,29.90,NNW,337,0.0,-999.0,91,-99.99,,,0.00,Acu-Link.com,2013-03-12 06:49:00,
2013-03-12 02:04:00,42.4,40.8,29.91,West,270,0.0,-999.0,94,-99.99,,,0.00,Acu-Link.com,2013-03-12 07:04:00,
2013-03-12 02:19:00,42.3,40.7,29.95,West,270,0.0,-999.0,94,-99.99,,,0.00,Acu-Link.com,2013-03-12 07:19:00,
2013-03-12 02:34:00,42.1,40.5,29.94,West,270,0.0,-999.0,94,-99.99,,,0.00,Acu-Link.com,2013-03-12 07:34:00,
2013-03-12 02:49:00,41.5,40.4,29.95,West,270,0.0,-999.0,96,-99.99,,,0.00,Acu-Link.com,2013-03-12 07:49:00,
2013-03-12 03:04:00,41.4,40.3,29.94,West,270,0.0,-999.0,96,-99.99,,,0.00,Acu-Link.com,2013-03-12 08:04:00,
2013-03-12 03:19:00,41.2,40.7,29.95,WNW,292,0.0,-999.0,98,-99.99,,,0.00,Acu-Link.com,2013-03-12 08:19:00,
2013-03-12 03:34:00,40.5,40.0,29.94,West,270,0.0,-999.0,98,-99.99,,,0.00,Acu-Link.com,2013-03-12 08:34:00,
2013-03-12 03:50:00,40.3,39.8,29.91,WNW,292,0.0,-999.0,98,-99.99,,,0.00,Acu-Link.com,2013-03-12 08:50:00,
2013-03-12 04:05:00,39.9,39.4,29.94,West,270,0.0,-999.0,98,-99.99,,,0.00,Acu-Link.com,2013-03-12 09:05:00,
2013-03-12 04:20:00,39.6,39.1,29.95,West,270,0.0,-999.0,98,-99.99,,,0.00,Acu-Link.com,2013-03-12 09:20:00,
2013-03-12 04:35:00,39.2,38.7,29.95,West,270,0.0,-999.0,98,-99.99,,,0.00,Acu-Link.com,2013-03-12 09:35:00,
2013-03-12 04:50:00,38.8,38.3,29.96,West,270,0.0,-999.0,98,-99.99,,,0.00,Acu-Link.com,2013-03-12 09:50:00,
2013-03-12 05:05:00,38.3,37.8,29.96,West,270,0.0,-999.0,98,-99.99,,,0.00,Acu-Link.com,2013-03-12 10:05:00,
2013-03-12 05:20:00,38.3,37.8,29.93,West,270,0.0,-999.0,98,-99.99,,,0.00,Acu-Link.com,2013-03-12 10:20:00,
2013-03-12 05:35:00,38.1,37.6,29.97,NE,45,0.0,-999.0,98,-99.99,,,0.00,Acu-Link.com,2013-03-12 10:35:00,
2013-03-12 05:50:00,37.9,37.4,29.93,NNE,22,0.0,-999.0,98,-99.99,,,0.00,Acu-Link.com,2013-03-12 10:50:00,
2013-03-12 06:05:00,37.4,36.9,29.96,ESE,112,0.0,-999.0,98,-99.99,,,0.00,Acu-Link.com,2013-03-12 11:05:00,
2013-03-12 06:21:00,37.0,36.5,29.93,SW,225,0.0,-999.0,98,-99.99,,,0.00,Acu-Link.com,2013-03-12 11:21:00,
2013-03-12 06:51:00,36.5,36.0,29.98,West,270,0.0,-999.0,98,-99.99,,,0.00,Acu-Link.com,2013-03-12 11:51:00,
2013-03-12 07:21:00,36.1,35.6,29.99,West,270,0.0,-999.0,98,-99.99,,,0.00,Acu-Link.com,2013-03-12 12:21:00,
2013-03-12 07:36:00,36.3,35.8,29.97,West,270,0.0,-999.0,98,-99.99,,,0.00,Acu-Link.com,2013-03-12 12:36:00,
2013-03-12 07:51:00,37.2,36.7,29.98,NNW,337,0.0,-999.0,98,-99.99,,,0.00,Acu-Link.com,2013-03-12 12:51:00,
2013-03-12 08:06:00,39.7,39.2,30.01,NE,45,1.7,-999.0,98,-99.99,,,0.00,Acu-Link.com,2013-03-12 13:06:00,
2013-03-12 08:21:00,44.2,42.6,29.99,NNE,22,2.2,-999.0,94,-99.99,,,0.00,Acu-Link.com,2013-03-12 13:21:00,
2013-03-12 08:37:00,48.9,43.3,30.00,WNW,292,3.2,-999.0,81,-99.99,,,0.00,Acu-Link.com,2013-03-12 13:37:00,
2013-03-12 08:52:00,51.6,43.6,30.04,NNW,337,2.2,-999.0,74,-99.99,,,0.00,Acu-Link.com,2013-03-12 13:52:00,
2013-03-12 09:07:00,51.6,42.5,30.02,NNE,22,3.2,-999.0,71,-99.99,,,0.00,Acu-Link.com,2013-03-12 14:07:00,
2013-03-12 09:22:00,52.7,42.8,30.01,ENE,67,2.2,-999.0,69,-99.99,,,0.00,Acu-Link.com,2013-03-12 14:22:00,
2013-03-12 09:37:00,53.6,42.9,30.02,East,90,2.7,-999.0,67,-99.99,,,0.00,Acu-Link.com,2013-03-12 14:37:00,
2013-03-12 09:52:00,54.5,43.4,30.02,NE,45,4.2,-999.0,66,-99.99,,,0.00,Acu-Link.com,2013-03-12 14:52:00,
2013-03-12 10:07:00,55.4,44.2,30.05,East,90,5.8,-999.0,66,-99.99,,,0.00,Acu-Link.com,2013-03-12 15:07:00,
2013-03-12 10:22:00,55.8,42.6,30.05,ESE,112,5.3,-999.0,61,-99.99,,,0.00,Acu-Link.com,2013-03-12 15:22:00,
2013-03-12 10:37:00,56.8,43.5,30.06,NE,45,4.2,-999.0,61,-99.99,,,0.00,Acu-Link.com,2013-03-12 15:37:00,
2013-03-12 10:53:00,57.4,41.8,30.04,NNW,337,4.7,-999.0,56,-99.99,,,0.00,Acu-Link.com,2013-03-12 15:53:00,
2013-03-12 11:08:00,58.6,43.4,30.06,ESE,112,3.2,-999.0,57,-99.99,,,0.00,Acu-Link.com,2013-03-12 16:08:00,
2013-03-12 11:23:00,59.0,42.9,30.06,North,0,3.2,-999.0,55,-99.99,,,0.00,Acu-Link.com,2013-03-12 16:23:00,
2013-03-12 11:38:00,59.7,42.0,30.06,SSW,202,4.7,-999.0,52,-99.99,,,0.00,Acu-Link.com,2013-03-12 16:38:00,
2013-03-12 11:53:00,60.1,42.4,30.03,NE,45,3.7,-999.0,52,-99.99,,,0.00,Acu-Link.com,2013-03-12 16:53:00,
2013-03-12 12:08:00,61.9,44.1,30.07,NNE,22,2.7,-999.0,52,-99.99,,,0.00,Acu-Link.com,2013-03-12 17:08:00,
2013-03-12 12:23:00,62.2,43.8,30.07,North,0,2.2,-999.0,51,-99.99,,,0.00,Acu-Link.com,2013-03-12 17:23:00,
2013-03-12 12:38:00,63.3,43.3,30.03,West,270,5.3,-999.0,48,-99.99,,,0.00,Acu-Link.com,2013-03-12 17:38:00,
2013-03-12 12:53:00,62.8,42.8,30.06,NNW,337,5.3,-999.0,48,-99.99,,,0.00,Acu-Link.com,2013-03-12 17:53:00,
2013-03-12 13:09:00,64.6,43.9,30.05,NNW,337,6.3,-999.0,47,-99.99,,,0.00,Acu-Link.com,2013-03-12 18:09:00,
2013-03-12 13:24:00,65.3,45.1,30.03,NNE,22,4.2,-999.0,48,-99.99,,,0.00,Acu-Link.com,2013-03-12 18:24:00,
2013-03-12 13:39:00,65.3,42.8,30.03,NE,45,3.2,-999.0,44,-99.99,,,0.00,Acu-Link.com,2013-03-12 18:39:00,
2013-03-12 13:54:00,66.0,43.5,30.03,West,270,8.9,-999.0,44,-99.99,,,0.00,Acu-Link.com,2013-03-12 18:54:00,
2013-03-12 14:09:00,67.8,45.1,29.99,SW,225,8.9,-999.0,44,-99.99,,,0.00,Acu-Link.com,2013-03-12 19:09:00,
2013-03-12 14:24:00,67.3,44.6,30.00,SW,225,5.3,-999.0,44,-99.99,,,0.00,Acu-Link.com,2013-03-12 19:24:00,
2013-03-12 14:39:00,67.8,45.7,30.00,NW,315,3.7,-999.0,45,-99.99,,,0.00,Acu-Link.com,2013-03-12 19:39:00,
2013-03-12 14:54:00,67.8,43.9,29.97,West,270,4.2,-999.0,42,-99.99,,,0.00,Acu-Link.com,2013-03-12 19:54:00,
2013-03-12 15:09:00,68.2,44.8,30.00,WNW,292,2.7,-999.0,43,-99.99,,,0.00,Acu-Link.com,2013-03-12 20:09:00,
2013-03-12 15:25:00,68.4,44.4,29.99,NNW,337,6.3,-999.0,42,-99.99,,,0.00,Acu-Link.com,2013-03-12 20:25:00,
2013-03-12 15:40:00,68.9,46.1,29.98,West,270,3.7,-999.0,44,-99.99,,,0.00,Acu-Link.com,2013-03-12 20:40:00,
2013-03-12 15:55:00,68.5,44.5,29.97,North,0,3.7,-999.0,42,-99.99,,,0.00,Acu-Link.com,2013-03-12 20:55:00,
2013-03-12 16:10:00,68.7,46.5,29.96,WNW,292,2.7,-999.0,45,-99.99,,,0.00,Acu-Link.com,2013-03-12 21:10:00,
2013-03-12 16:25:00,69.1,46.3,29.95,West,270,8.3,-999.0,44,-99.99,,,0.00,Acu-Link.com,2013-03-12 21:25:00,
2013-03-12 16:40:00,69.8,46.9,29.95,SW,225,5.8,-999.0,44,-99.99,,,0.00,Acu-Link.com,2013-03-12 21:40:00,
2013-03-12 16:55:00,69.1,46.3,29.99,West,270,6.3,-999.0,44,-99.99,,,0.00,Acu-Link.com,2013-03-12 21:55:00,
2013-03-12 17:10:00,69.3,47.0,29.98,NW,315,4.7,-999.0,45,-99.99,,,0.00,Acu-Link.com,2013-03-12 22:10:00,
2013-03-12 17:25:00,69.1,45.7,29.97,SW,225,4.2,-999.0,43,-99.99,,,0.00,Acu-Link.com,2013-03-12 22:25:00,
2013-03-12 17:41:00,68.9,44.9,29.98,West,270,5.3,-999.0,42,-99.99,,,0.00,Acu-Link.com,2013-03-12 22:41:00,
2013-03-12 17:56:00,68.0,44.7,29.98,West,270,4.7,-999.0,43,-99.99,,,0.00,Acu-Link.com,2013-03-12 22:56:00,
2013-03-12 18:11:00,67.3,44.6,29.99,NNE,22,2.7,-999.0,44,-99.99,,,0.00,Acu-Link.com,2013-03-12 23:11:00,
2013-03-12 18:26:00,68.2,44.8,29.98,NW,315,7.8,-999.0,43,-99.99,,,0.00,Acu-Link.com,2013-03-12 23:26:00,
2013-03-12 18:41:00,67.1,44.5,30.01,SW,225,3.7,-999.0,44,-99.99,,,0.00,Acu-Link.com,2013-03-12 23:41:00,
2013-03-12 19:11:00,62.8,43.9,29.98,SW,225,2.7,-999.0,50,-99.99,,,0.00,Acu-Link.com,2013-03-13 00:11:00,
2013-03-12 19:26:00,61.5,43.7,30.02,West,270,2.2,-999.0,52,-99.99,,,0.00,Acu-Link.com,2013-03-13 00:26:00,
2013-03-12 19:41:00,61.0,43.2,30.03,West,270,2.7,-999.0,52,-99.99,,,0.00,Acu-Link.com,2013-03-13 00:41:00,
2013-03-12 19:57:00,60.3,44.1,30.03,West,270,2.2,-999.0,55,-99.99,,,0.00,Acu-Link.com,2013-03-13 00:57:00,
2013-03-12 20:12:00,59.4,44.6,30.00,West,270,1.7,-999.0,58,-99.99,,,0.00,Acu-Link.com,2013-03-13 01:12:00,
2013-03-12 20:27:00,58.8,44.5,30.05,West,270,3.7,-999.0,59,-99.99,,,0.00,Acu-Link.com,2013-03-13 01:27:00,
2013-03-12 20:57:00,57.2,45.1,30.05,NNW,337,1.1,-999.0,64,-99.99,,,0.00,Acu-Link.com,2013-03-13 01:57:00,
2013-03-12 21:12:00,56.3,44.7,30.07,SW,225,0.0,-999.0,65,-99.99,,,0.00,Acu-Link.com,2013-03-13 02:12:00,
2013-03-12 21:27:00,54.9,44.5,30.08,WNW,292,0.0,-999.0,68,-99.99,,,0.00,Acu-Link.com,2013-03-13 02:27:00,
2013-03-12 21:43:00,53.6,44.8,30.09,West,270,1.1,-999.0,72,-99.99,,,0.00,Acu-Link.com,2013-03-13 02:43:00,
2013-03-12 21:58:00,53.4,44.6,30.09,NNE,22,0.0,-999.0,72,-99.99,,,0.00,Acu-Link.com,2013-03-13 02:58:00,
2013-03-12 22:13:00,53.2,44.0,30.09,WNW,292,1.1,-999.0,71,-99.99,,,0.00,Acu-Link.com,2013-03-13 03:13:00,
2013-03-12 22:28:00,52.9,43.8,30.09,West,270,1.1,-999.0,71,-99.99,,,0.00,Acu-Link.com,2013-03-13 03:28:00,
2013-03-12 22:43:00,52.7,43.9,30.09,North,0,0.0,-999.0,72,-99.99,,,0.00,Acu-Link.com,2013-03-13 03:43:00,
2013-03-12 22:58:00,51.3,42.6,30.10,NE,45,0.0,-999.0,72,-99.99,,,0.00,Acu-Link.com,2013-03-13 03:58:00,
2013-03-12 23:13:00,50.4,44.1,30.07,West,270,0.0,-999.0,79,-99.99,,,0.00,Acu-Link.com,2013-03-13 04:13:00,
2013-03-12 23:28:00,49.5,44.2,30.10,West,270,0.0,-999.0,82,-99.99,,,0.00,Acu-Link.com,2013-03-13 04:28:00,
2013-03-12 23:44:00,48.6,43.7,30.08,West,270,0.0,-999.0,83,-99.99,,,0.00,Acu-Link.com,2013-03-13 04:44:00,
2013-03-12 23:59:00,48.0,43.4,30.07,West,270,0.0,-999.0,84,-99.99,,,0.00,Acu-Link.com,2013-03-13 04:59:00,